Time;durP1;ratioP1;P1;durP2;ratioP2;P2;SDS_P1;SDS_P2;PMS_P1;PMS_P2;Temp;Humidity;BMP_temperature;BMP_pressure;BME280_temperature;BME280_humidity;BME280_pressure;Samples;Min_cycle;Max_cycle;Signal;HPM_P1;HPM_P2
2024/01/06 00:00:45;;;;;;;3.50;1.08;;;;;;;;;;4989940;28;20224;-76
2024/01/06 00:03:11;;;;;;;3.45;0.88;;;;;;;;;;4987608;28;20477;-76
2024/01/06 00:05:36;;;;;;;3.03;0.88;;;;;;;;;;4999448;28;20626;-76
2024/01/06 00:08:02;;;;;;;1.85;0.75;;;;;;;;;;4985558;28;20038;-76
2024/01/06 00:10:27;;;;;;;1.25;0.85;;;;;;;;;;4982548;28;20135;-76
2024/01/06 00:12:52;;;;;;;1.20;0.90;;;;;;;;;;4994250;28;20084;-76
2024/01/06 00:15:18;;;;;;;1.25;0.80;;;;;;;;;;4981308;28;20093;-75
2024/01/06 00:17:43;;;;;;;3.00;0.93;;;;;;;;;;4968018;28;20030;-75
2024/01/06 00:20:09;;;;;;;1.42;0.90;;;;;;;;;;4974902;28;20119;-76
2024/01/06 00:22:35;;;;;;;2.80;1.00;;;;;;;;;;4981615;28;20050;-75
2024/01/06 00:25:00;;;;;;;3.20;1.02;;;;;;;;;;4998774;28;20049;-76
2024/01/06 00:27:26;;;;;;;3.40;1.15;;;;;;;;;;4996703;28;20083;-76
2024/01/06 00:29:51;;;;;;;1.17;0.73;;;;;;;;;;4981597;28;20038;-76
2024/01/06 00:32:17;;;;;;;1.45;0.75;;;;;;;;;;4965769;28;20402;-76
2024/01/06 00:34:42;;;;;;;3.25;1.20;;;;;;;;;;4992848;28;20038;-76
2024/01/06 00:37:07;;;;;;;3.65;0.90;;;;;;;;;;4976100;28;20106;-76
2024/01/06 00:39:33;;;;;;;2.55;1.02;;;;;;;;;;4971708;28;20324;-76
2024/01/06 00:41:58;;;;;;;3.10;1.00;;;;;;;;;;4975296;28;20038;-76
2024/01/06 00:44:23;;;;;;;2.50;0.82;;;;;;;;;;4975074;28;20514;-75
2024/01/06 00:46:49;;;;;;;3.40;1.10;;;;;;;;;;4982491;28;20049;-75
2024/01/06 00:49:14;;;;;;;1.63;0.52;;;;;;;;;;4990131;28;20042;-75
2024/01/06 00:51:40;;;;;;;2.03;0.90;;;;;;;;;;4975894;28;20042;-76
2024/01/06 00:54:05;;;;;;;2.85;0.70;;;;;;;;;;4983241;28;20053;-76
2024/01/06 00:56:30;;;;;;;2.38;0.73;;;;;;;;;;4983012;28;20054;-75
2024/01/06 00:58:56;;;;;;;1.73;0.93;;;;;;;;;;4981502;28;20395;-76
2024/01/06 01:01:21;;;;;;;0.88;0.75;;;;;;;;;;4983037;28;20034;-76
2024/01/06 01:03:47;;;;;;;1.10;0.95;;;;;;;;;;4990455;28;20129;-75
2024/01/06 01:06:12;;;;;;;2.75;1.00;;;;;;;;;;4961302;28;20046;-75
2024/01/06 01:08:38;;;;;;;3.35;1.10;;;;;;;;;;4973478;28;20113;-76
2024/01/06 01:11:03;;;;;;;1.70;0.88;;;;;;;;;;4990882;28;20038;-76
2024/01/06 01:13:29;;;;;;;1.27;0.90;;;;;;;;;;4994078;28;20488;-76
2024/01/06 01:15:54;;;;;;;0.50;0.43;;;;;;;;;;4949675;28;20048;-77
2024/01/06 01:18:19;;;;;;;3.13;1.40;;;;;;;;;;4994072;28;20383;-77
2024/01/06 01:20:45;;;;;;;2.72;0.90;;;;;;;;;;4977672;28;20034;-77
2024/01/06 01:23:10;;;;;;;3.58;1.10;;;;;;;;;;4992316;28;20046;-76
2024/01/06 01:25:35;;;;;;;0.80;0.47;;;;;;;;;;4976830;28;20065;-76
2024/01/06 01:28:01;;;;;;;2.20;1.10;;;;;;;;;;4993966;28;20506;-76
2024/01/06 01:30:27;;;;;;;2.53;1.10;;;;;;;;;;4983211;28;20049;-76
2024/01/06 01:32:53;;;;;;;2.20;0.80;;;;;;;;;;4973207;28;20186;-76
2024/01/06 01:35:18;;;;;;;1.60;0.90;;;;;;;;;;4955226;28;20121;-76
2024/01/06 01:37:43;;;;;;;1.42;0.55;;;;;;;;;;4957195;28;20511;-76
2024/01/06 01:40:09;;;;;;;1.58;0.75;;;;;;;;;;4974432;28;20525;-75
2024/01/06 01:42:34;;;;;;;2.05;0.85;;;;;;;;;;4994137;28;20042;-76
2024/01/06 01:45:00;;;;;;;2.47;0.82;;;;;;;;;;4981796;28;20048;-76
2024/01/06 01:47:26;;;;;;;5.10;1.60;;;;;;;;;;4994996;28;20390;-76
2024/01/06 01:49:54;;;;;;;2.33;1.00;;;;;;;;;;4993935;28;20038;-76
2024/01/06 01:52:19;;;;;;;3.67;2.15;;;;;;;;;;4993993;28;20034;-76
2024/01/06 01:54:53;;;;;;;1.40;1.10;;;;;;;;;;5043860;28;20389;-76
2024/01/06 01:57:22;;;;;;;1.73;1.15;;;;;;;;;;5042183;28;20029;-76
2024/01/06 01:59:47;;;;;;;2.30;1.02;;;;;;;;;;5046631;28;20461;-76
2024/01/06 02:02:13;;;;;;;3.88;1.05;;;;;;;;;;5041716;28;20119;-75
2024/01/06 02:04:39;;;;;;;1.92;0.90;;;;;;;;;;5044177;28;20025;-75
2024/01/06 02:07:04;;;;;;;3.17;1.02;;;;;;;;;;5043110;28;20027;-76
2024/01/06 02:09:30;;;;;;;6.00;1.38;;;;;;;;;;5041618;28;20481;-75
2024/01/06 02:11:59;;;;;;;4.78;0.88;;;;;;;;;;5041854;28;20485;-76
2024/01/06 02:14:24;;;;;;;6.05;1.38;;;;;;;;;;5043028;28;20116;-76
2024/01/06 02:16:49;;;;;;;1.70;0.80;;;;;;;;;;5041449;28;20116;-76
2024/01/06 02:19:17;;;;;;;2.78;1.13;;;;;;;;;;5041267;28;20501;-76
2024/01/06 02:21:43;;;;;;;1.83;1.00;;;;;;;;;;5041723;28;20036;-76
2024/01/06 02:24:09;;;;;;;1.40;0.65;;;;;;;;;;5037216;28;20095;-76
2024/01/06 02:26:35;;;;;;;1.92;0.93;;;;;;;;;;5040343;28;20037;-76
2024/01/06 02:29:01;;;;;;;4.53;1.10;;;;;;;;;;5045792;28;20071;-77
2024/01/06 02:31:27;;;;;;;1.40;0.95;;;;;;;;;;5037642;28;20563;-77
2024/01/06 02:33:52;;;;;;;4.45;1.13;;;;;;;;;;5041096;28;20033;-77
2024/01/06 02:36:18;;;;;;;1.00;0.70;;;;;;;;;;5040801;28;20040;-77
2024/01/06 02:38:43;;;;;;;4.40;1.00;;;;;;;;;;5045853;28;20041;-76
2024/01/06 02:41:08;;;;;;;1.25;1.02;;;;;;;;;;5040378;28;20021;-76
2024/01/06 02:43:34;;;;;;;1.90;1.27;;;;;;;;;;5038949;28;20033;-76
2024/01/06 02:45:59;;;;;;;3.03;1.27;;;;;;;;;;5040702;28;20508;-76
2024/01/06 02:48:24;;;;;;;3.58;1.27;;;;;;;;;;5039708;28;20033;-76
2024/01/06 02:50:50;;;;;;;3.83;1.08;;;;;;;;;;5040804;28;20029;-76
2024/01/06 02:53:15;;;;;;;0.90;0.75;;;;;;;;;;5042321;28;20492;-76
2024/01/06 02:55:41;;;;;;;4.00;1.30;;;;;;;;;;5041555;28;20508;-76
2024/01/06 02:58:06;;;;;;;2.60;1.10;;;;;;;;;;5044751;28;20029;-75
2024/01/06 03:00:31;;;;;;;3.50;1.25;;;;;;;;;;5044122;28;20049;-76
2024/01/06 03:02:57;;;;;;;1.83;1.17;;;;;;;;;;5038348;28;20064;-76
2024/01/06 03:05:22;;;;;;;1.77;0.93;;;;;;;;;;5031051;28;20079;-76
2024/01/06 03:07:47;;;;;;;2.90;1.10;;;;;;;;;;5017392;28;20036;-76
2024/01/06 03:10:13;;;;;;;4.03;1.52;;;;;;;;;;5021977;28;20043;-76
2024/01/06 03:12:39;;;;;;;4.07;0.80;;;;;;;;;;5025716;28;20039;-76
2024/01/06 03:15:05;;;;;;;5.63;1.15;;;;;;;;;;5024967;28;20064;-76
2024/01/06 03:17:30;;;;;;;1.65;0.88;;;;;;;;;;5022410;28;20033;-76
2024/01/06 03:19:57;;;;;;;3.80;1.17;;;;;;;;;;5021194;28;20053;-76
2024/01/06 03:22:22;;;;;;;5.85;1.63;;;;;;;;;;5025592;28;20124;-76
2024/01/06 03:24:47;;;;;;;1.83;0.90;;;;;;;;;;5022685;28;20474;-76
2024/01/06 03:27:13;;;;;;;5.82;1.33;;;;;;;;;;5027060;28;20029;-76
2024/01/06 03:29:39;;;;;;;2.50;1.20;;;;;;;;;;5027164;28;20063;-76
2024/01/06 03:32:05;;;;;;;4.97;1.30;;;;;;;;;;5022618;28;20406;-76
2024/01/06 03:34:30;;;;;;;2.85;1.17;;;;;;;;;;5026580;28;20033;-76
2024/01/06 03:36:55;;;;;;;1.65;0.93;;;;;;;;;;5020890;28;20468;-76
2024/01/06 03:39:21;;;;;;;3.83;1.13;;;;;;;;;;5023545;28;20494;-76
2024/01/06 03:41:48;;;;;;;1.20;1.10;;;;;;;;;;5025366;28;20053;-76
2024/01/06 03:44:13;;;;;;;1.70;1.08;;;;;;;;;;5025141;28;20037;-76
2024/01/06 03:46:39;;;;;;;1.50;0.70;;;;;;;;;;5022796;28;20042;-76
2024/01/06 03:49:04;;;;;;;3.28;1.15;;;;;;;;;;5030239;28;20497;-76
2024/01/06 03:51:30;;;;;;;1.17;1.08;;;;;;;;;;5022716;28;20094;-76
2024/01/06 03:53:55;;;;;;;2.13;0.90;;;;;;;;;;5024998;28;20025;-76
2024/01/06 03:56:20;;;;;;;4.28;1.08;;;;;;;;;;5024416;28;20042;-76
2024/01/06 03:58:46;;;;;;;2.42;0.82;;;;;;;;;;5028560;28;20025;-75
2024/01/06 04:01:11;;;;;;;1.13;0.93;;;;;;;;;;5023140;28;20079;-76
2024/01/06 04:03:38;;;;;;;1.10;0.90;;;;;;;;;;5024882;28;20025;-76
2024/01/06 04:06:04;;;;;;;3.60;1.15;;;;;;;;;;5029709;28;20026;-76
2024/01/06 04:08:29;;;;;;;3.30;1.00;;;;;;;;;;5023841;28;20029;-76
2024/01/06 04:10:55;;;;;;;0.80;0.80;;;;;;;;;;5021402;28;20034;-75
2024/01/06 04:13:20;;;;;;;4.60;1.50;;;;;;;;;;5024251;28;20029;-77
2024/01/06 04:15:46;;;;;;;1.58;1.05;;;;;;;;;;5027548;28;20383;-77
2024/01/06 04:18:11;;;;;;;0.90;0.82;;;;;;;;;;5025255;28;20118;-77
2024/01/06 04:20:36;;;;;;;1.67;0.90;;;;;;;;;;5022201;28;20537;-76
2024/01/06 04:23:02;;;;;;;1.95;0.95;;;;;;;;;;5027391;28;20061;-76
2024/01/06 04:25:27;;;;;;;2.17;0.80;;;;;;;;;;5023944;28;20112;-77
2024/01/06 04:27:52;;;;;;;3.65;1.20;;;;;;;;;;5019930;28;20034;-76
2024/01/06 04:30:20;;;;;;;1.92;1.02;;;;;;;;;;5028724;28;20478;-75
2024/01/06 04:32:48;;;;;;;3.22;1.05;;;;;;;;;;5027863;28;20043;-75
2024/01/06 04:35:14;;;;;;;2.70;1.02;;;;;;;;;;5020694;28;20044;-76
2024/01/06 04:37:39;;;;;;;1.85;1.08;;;;;;;;;;5019516;28;20037;-76
2024/01/06 04:40:05;;;;;;;1.35;0.82;;;;;;;;;;5021322;28;20102;-75
2024/01/06 04:42:31;;;;;;;4.00;1.13;;;;;;;;;;5024868;28;20029;-76
2024/01/06 04:44:56;;;;;;;1.40;0.93;;;;;;;;;;5023260;28;20416;-76
2024/01/06 04:47:21;;;;;;;1.92;0.90;;;;;;;;;;5021028;28;20033;-76
2024/01/06 04:49:47;;;;;;;2.40;1.00;;;;;;;;;;5027936;28;20029;-76
2024/01/06 04:52:12;;;;;;;2.45;1.08;;;;;;;;;;5026842;28;20028;-76
2024/01/06 04:54:38;;;;;;;1.23;1.02;;;;;;;;;;5022809;28;20391;-76
2024/01/06 04:57:04;;;;;;;3.28;1.20;;;;;;;;;;5020369;28;20041;-76
2024/01/06 04:59:30;;;;;;;4.13;1.20;;;;;;;;;;5023781;28;20138;-75
2024/01/06 05:01:57;;;;;;;2.30;1.10;;;;;;;;;;5024120;28;20033;-76
2024/01/06 05:04:22;;;;;;;6.45;1.05;;;;;;;;;;5026468;28;20106;-76
2024/01/06 05:06:49;;;;;;;3.33;1.02;;;;;;;;;;5019556;28;20495;-76
2024/01/06 05:09:14;;;;;;;4.97;1.20;;;;;;;;;;5022238;28;20029;-75
2024/01/06 05:11:40;;;;;;;1.83;1.15;;;;;;;;;;5021761;28;20038;-76
2024/01/06 05:14:05;;;;;;;1.63;1.13;;;;;;;;;;5023146;28;20448;-76
2024/01/06 05:16:31;;;;;;;10.32;1.40;;;;;;;;;;5020475;28;20033;-75
2024/01/06 05:18:56;;;;;;;2.38;1.00;;;;;;;;;;5040284;28;20655;-76
2024/01/06 05:21:22;;;;;;;1.48;0.80;;;;;;;;;;5023390;28;20028;-76
2024/01/06 05:23:47;;;;;;;2.38;1.25;;;;;;;;;;5025386;28;20151;-76
2024/01/06 05:26:13;;;;;;;0.77;0.50;;;;;;;;;;5026236;28;20513;-76
2024/01/06 05:28:39;;;;;;;2.65;1.00;;;;;;;;;;5023381;28;20676;-76
2024/01/06 05:31:04;;;;;;;1.77;1.10;;;;;;;;;;5026314;28;20035;-77
2024/01/06 05:33:30;;;;;;;1.40;0.90;;;;;;;;;;5027526;28;20021;-76
2024/01/06 05:35:55;;;;;;;2.78;1.15;;;;;;;;;;5027926;28;20071;-76
2024/01/06 05:38:20;;;;;;;3.80;1.20;;;;;;;;;;5025443;28;20112;-75
2024/01/06 05:40:46;;;;;;;1.00;0.80;;;;;;;;;;5024772;28;20895;-75
2024/01/06 05:43:11;;;;;;;3.00;1.10;;;;;;;;;;5022957;28;20383;-77
2024/01/06 05:45:37;;;;;;;1.60;1.00;;;;;;;;;;5024706;28;20061;-75
2024/01/06 05:48:04;;;;;;;1.67;0.90;;;;;;;;;;5021779;28;20044;-76
2024/01/06 05:50:30;;;;;;;6.18;1.20;;;;;;;;;;5024707;28;20059;-76
2024/01/06 05:52:55;;;;;;;2.80;1.40;;;;;;;;;;5019865;28;20049;-76
2024/01/06 05:55:21;;;;;;;3.67;1.40;;;;;;;;;;5027170;28;20040;-76
2024/01/06 05:57:46;;;;;;;4.03;1.45;;;;;;;;;;5027574;28;20073;-76
2024/01/06 06:00:13;;;;;;;2.38;1.83;;;;;;;;;;5025146;28;20029;-76
2024/01/06 06:02:39;;;;;;;2.80;2.10;;;;;;;;;;5024608;28;20405;-76
2024/01/06 06:05:05;;;;;;;3.05;1.40;;;;;;;;;;5026948;28;20037;-76
2024/01/06 06:07:31;;;;;;;3.67;1.40;;;;;;;;;;5026422;28;20395;-76
2024/01/06 06:09:56;;;;;;;3.15;1.77;;;;;;;;;;5027994;28;20021;-76
2024/01/06 06:12:21;;;;;;;1.63;1.00;;;;;;;;;;5024854;28;20041;-76
2024/01/06 06:14:47;;;;;;;2.40;1.10;;;;;;;;;;5022902;28;20413;-76
2024/01/06 06:17:12;;;;;;;3.10;1.20;;;;;;;;;;5024936;28;20064;-76
2024/01/06 06:19:37;;;;;;;1.92;1.23;;;;;;;;;;5026202;28;20105;-76
2024/01/06 06:22:03;;;;;;;4.30;1.17;;;;;;;;;;5026958;28;20273;-76
2024/01/06 06:24:29;;;;;;;1.23;1.00;;;;;;;;;;5020886;28;20029;-76
2024/01/06 06:26:54;;;;;;;2.67;0.80;;;;;;;;;;5023488;28;20025;-76
2024/01/06 06:29:20;;;;;;;2.17;1.30;;;;;;;;;;5021495;28;20033;-75
2024/01/06 06:31:46;;;;;;;3.75;1.45;;;;;;;;;;5023467;28;20127;-76
2024/01/06 06:34:12;;;;;;;2.83;1.20;;;;;;;;;;5019878;28;20109;-75
2024/01/06 06:36:38;;;;;;;2.70;1.92;;;;;;;;;;5022575;28;20667;-76
2024/01/06 06:39:04;;;;;;;5.90;2.40;;;;;;;;;;5026096;28;20063;-76
2024/01/06 06:41:29;;;;;;;5.22;2.25;;;;;;;;;;5003567;28;20046;-75
2024/01/06 06:43:55;;;;;;;6.65;2.58;;;;;;;;;;5031098;28;20036;-75
2024/01/06 06:46:21;;;;;;;3.70;2.38;;;;;;;;;;5029458;28;20136;-75
2024/01/06 06:48:46;;;;;;;3.38;1.50;;;;;;;;;;5031817;28;20121;-75
2024/01/06 06:51:11;;;;;;;4.78;1.73;;;;;;;;;;5031274;28;20509;-75
2024/01/06 06:53:37;;;;;;;4.55;1.60;;;;;;;;;;5023487;28;20198;-75
2024/01/06 06:56:02;;;;;;;6.00;3.15;;;;;;;;;;5029393;28;20049;-75
2024/01/06 06:58:28;;;;;;;4.28;2.50;;;;;;;;;;5025162;28;20525;-76
2024/01/06 07:00:54;;;;;;;3.88;2.15;;;;;;;;;;5029114;28;20104;-75
2024/01/06 07:03:19;;;;;;;2.70;1.83;;;;;;;;;;5024071;28;20129;-75
2024/01/06 07:05:45;;;;;;;2.70;1.67;;;;;;;;;;5030838;28;20040;-76
2024/01/06 07:08:10;;;;;;;3.05;1.95;;;;;;;;;;5016104;28;20041;-76
2024/01/06 07:10:35;;;;;;;4.05;1.73;;;;;;;;;;5030994;28;20040;-75
2024/01/06 07:13:01;;;;;;;2.70;1.60;;;;;;;;;;5027879;28;20049;-75
2024/01/06 07:15:26;;;;;;;1.65;1.25;;;;;;;;;;5026707;28;20075;-74
2024/01/06 07:17:51;;;;;;;3.55;1.10;;;;;;;;;;5018184;28;20730;-74
2024/01/06 07:20:20;;;;;;;2.30;1.20;;;;;;;;;;5025729;28;20155;-74
2024/01/06 07:22:45;;;;;;;1.73;1.20;;;;;;;;;;5021512;28;20041;-74
2024/01/06 07:25:10;;;;;;;4.13;1.67;;;;;;;;;;5026993;28;20040;-75
2024/01/06 07:27:36;;;;;;;2.95;1.50;;;;;;;;;;5030293;28;20041;-75
2024/01/06 07:30:01;;;;;;;2.95;1.60;;;;;;;;;;5029145;28;20045;-75
2024/01/06 07:32:27;;;;;;;6.80;3.50;;;;;;;;;;5031977;28;20091;-75
2024/01/06 07:34:52;;;;;;;9.13;4.82;;;;;;;;;;5016312;28;20120;-76
2024/01/06 07:37:17;;;;;;;10.55;4.93;;;;;;;;;;5019930;28;20052;-75
2024/01/06 07:39:43;;;;;;;2.05;1.40;;;;;;;;;;5031668;28;20056;-75
2024/01/06 07:42:08;;;;;;;9.15;2.72;;;;;;;;;;5027922;28;20127;-75
2024/01/06 07:44:34;;;;;;;9.10;3.72;;;;;;;;;;5031088;28;20059;-76
2024/01/06 07:46:59;;;;;;;4.53;2.80;;;;;;;;;;5030926;28;20041;-75
2024/01/06 07:49:24;;;;;;;4.63;2.55;;;;;;;;;;5028884;28;20041;-75
2024/01/06 07:51:50;;;;;;;9.35;1.75;;;;;;;;;;5017206;28;20033;-75
2024/01/06 07:54:15;;;;;;;4.07;1.88;;;;;;;;;;5012388;28;20048;-75
2024/01/06 07:56:41;;;;;;;5.40;2.45;;;;;;;;;;5028700;28;20057;-76
2024/01/06 07:59:06;;;;;;;8.93;3.40;;;;;;;;;;5030156;28;20040;-75
2024/01/06 08:01:32;;;;;;;4.15;2.65;;;;;;;;;;5031269;28;20049;-76
2024/01/06 08:03:58;;;;;;;7.35;3.58;;;;;;;;;;5030383;28;20127;-76
2024/01/06 08:06:25;;;;;;;4.85;2.58;;;;;;;;;;5014159;28;21632;-75
2024/01/06 08:08:50;;;;;;;4.18;2.20;;;;;;;;;;5028795;28;20056;-75
2024/01/06 08:11:15;;;;;;;6.30;3.20;;;;;;;;;;5030791;28;20504;-75
2024/01/06 08:13:41;;;;;;;5.40;2.70;;;;;;;;;;5033052;28;20090;-75
2024/01/06 08:16:06;;;;;;;5.25;3.28;;;;;;;;;;5032137;28;20548;-75
2024/01/06 08:18:32;;;;;;;7.15;3.65;;;;;;;;;;5034103;28;20037;-75
2024/01/06 08:20:58;;;;;;;5.32;3.55;;;;;;;;;;5019114;28;20132;-75
2024/01/06 08:23:23;;;;;;;6.65;3.88;;;;;;;;;;5031964;28;20041;-75
2024/01/06 08:25:48;;;;;;;6.78;3.28;;;;;;;;;;5024710;28;20033;-75
2024/01/06 08:28:18;;;;;;;6.07;3.38;;;;;;;;;;5019608;28;20127;-75
2024/01/06 08:30:44;;;;;;;6.30;2.78;;;;;;;;;;5033799;28;20061;-75
2024/01/06 08:33:09;;;;;;;6.60;3.10;;;;;;;;;;5027945;28;20047;-75
2024/01/06 08:35:40;;;;;;;6.93;3.03;;;;;;;;;;5013114;28;20037;-76
2024/01/06 08:38:08;;;;;;;6.68;4.63;;;;;;;;;;5029735;28;20037;-75
2024/01/06 08:40:34;;;;;;;9.68;6.07;;;;;;;;;;5028698;28;20048;-75
2024/01/06 08:42:59;;;;;;;12.32;6.40;;;;;;;;;;5031625;28;20115;-75
2024/01/06 08:45:25;;;;;;;11.57;6.70;;;;;;;;;;5032912;28;20194;-75
2024/01/06 08:47:50;;;;;;;13.60;7.22;;;;;;;;;;5017192;28;20063;-75
2024/01/06 08:50:16;;;;;;;13.50;7.57;;;;;;;;;;5028974;28;20567;-75
2024/01/06 08:52:41;;;;;;;12.43;6.80;;;;;;;;;;5009824;28;20045;-75
2024/01/06 08:55:07;;;;;;;10.38;6.50;;;;;;;;;;5023761;28;20509;-75
2024/01/06 08:57:32;;;;;;;13.48;6.65;;;;;;;;;;5029181;28;20040;-75
2024/01/06 08:59:58;;;;;;;11.20;4.80;;;;;;;;;;5032537;28;20497;-75
2024/01/06 09:02:24;;;;;;;10.05;5.30;;;;;;;;;;5021007;28;20081;-75
2024/01/06 09:04:49;;;;;;;9.52;5.78;;;;;;;;;;5014450;28;20107;-75
2024/01/06 09:07:14;;;;;;;10.70;5.40;;;;;;;;;;5028488;28;20065;-75
2024/01/06 09:09:40;;;;;;;9.23;5.78;;;;;;;;;;5030400;28;20069;-75
2024/01/06 09:12:05;;;;;;;9.93;5.85;;;;;;;;;;5032088;28;20631;-75
2024/01/06 09:14:31;;;;;;;5.50;3.75;;;;;;;;;;5025214;28;21656;-75
2024/01/06 09:16:56;;;;;;;10.40;4.97;;;;;;;;;;5005265;28;20041;-75
2024/01/06 09:19:21;;;;;;;8.73;4.38;;;;;;;;;;5029583;28;20048;-75
2024/01/06 09:21:47;;;;;;;7.80;4.20;;;;;;;;;;5030648;28;20124;-75
2024/01/06 09:24:12;;;;;;;12.13;5.53;;;;;;;;;;5033588;28;20793;-75
2024/01/06 09:26:38;;;;;;;7.70;4.20;;;;;;;;;;5029292;28;20159;-75
2024/01/06 09:29:04;;;;;;;8.82;4.50;;;;;;;;;;5011561;28;20099;-75
2024/01/06 09:31:30;;;;;;;7.35;3.42;;;;;;;;;;5001400;28;20052;-75
2024/01/06 09:33:55;;;;;;;4.18;2.55;;;;;;;;;;5023098;28;20041;-75
2024/01/06 09:36:20;;;;;;;5.72;2.60;;;;;;;;;;5023893;28;20460;-75
2024/01/06 09:38:46;;;;;;;7.00;2.80;;;;;;;;;;5029449;28;20055;-75
2024/01/06 09:41:12;;;;;;;5.20;2.70;;;;;;;;;;5032230;28;20048;-75
2024/01/06 09:43:38;;;;;;;7.30;3.55;;;;;;;;;;5013022;28;20033;-75
2024/01/06 09:46:13;;;;;;;8.80;3.22;;;;;;;;;;4997602;28;20585;-76
2024/01/06 09:48:44;;;;;;;4.50;3.15;;;;;;;;;;5031164;28;20068;-75
2024/01/06 09:51:11;;;;;;;7.20;3.33;;;;;;;;;;5029373;28;20052;-75
2024/01/06 09:53:47;;;;;;;5.90;3.47;;;;;;;;;;5031258;28;20037;-75
2024/01/06 09:56:17;;;;;;;8.43;3.80;;;;;;;;;;5007979;28;20499;-75
2024/01/06 09:58:44;;;;;;;6.68;3.90;;;;;;;;;;5023258;28;20045;-75
2024/01/06 10:01:10;;;;;;;13.68;6.75;;;;;;;;;;5035020;28;20044;-75
2024/01/06 10:03:37;;;;;;;12.77;6.05;;;;;;;;;;5032197;28;20207;-76
2024/01/06 10:06:04;;;;;;;22.25;12.60;;;;;;;;;;5008456;28;20084;-76
2024/01/06 10:08:32;;;;;;;22.00;10.32;;;;;;;;;;5020616;28;20124;-75
2024/01/06 10:10:58;;;;;;;18.83;8.57;;;;;;;;;;5017594;28;20037;-76
2024/01/06 10:13:24;;;;;;;12.68;7.35;;;;;;;;;;5031566;28;20059;-76
2024/01/06 10:15:50;;;;;;;28.63;15.80;;;;;;;;;;5025582;28;20596;-75
2024/01/06 10:18:15;;;;;;;28.83;16.13;;;;;;;;;;5002141;28;20068;-75
2024/01/06 10:20:41;;;;;;;14.13;8.82;;;;;;;;;;5025942;28;20049;-75
2024/01/06 10:23:06;;;;;;;9.45;5.95;;;;;;;;;;5032262;28;20065;-75
2024/01/06 10:25:32;;;;;;;13.07;6.70;;;;;;;;;;5019945;28;20036;-75
2024/01/06 10:28:00;;;;;;;15.00;7.32;;;;;;;;;;5031983;28;20517;-75
2024/01/06 10:30:25;;;;;;;18.60;9.43;;;;;;;;;;5036610;28;20045;-75
2024/01/06 10:32:51;;;;;;;19.98;12.15;;;;;;;;;;5016833;28;21642;-75
2024/01/06 10:35:18;;;;;;;15.00;8.75;;;;;;;;;;5010065;28;20065;-75
2024/01/06 10:37:44;;;;;;;8.43;4.32;;;;;;;;;;5026915;28;20130;-75
2024/01/06 10:40:14;;;;;;;7.63;5.10;;;;;;;;;;5020716;28;20880;-75
2024/01/06 10:42:40;;;;;;;6.60;4.43;;;;;;;;;;5022981;28;20108;-75
2024/01/06 10:45:08;;;;;;;6.45;4.50;;;;;;;;;;5032516;28;20136;-75
2024/01/06 10:47:35;;;;;;;6.22;3.97;;;;;;;;;;5031771;28;20146;-75
2024/01/06 10:50:00;;;;;;;10.05;4.10;;;;;;;;;;5034447;28;20688;-75
2024/01/06 10:52:27;;;;;;;5.85;4.00;;;;;;;;;;5025029;28;20086;-76
2024/01/06 10:54:55;;;;;;;9.73;5.25;;;;;;;;;;5025929;28;20532;-75
2024/01/06 10:57:20;;;;;;;7.88;4.28;;;;;;;;;;5018028;28;20119;-75
2024/01/06 10:59:49;;;;;;;7.90;4.80;;;;;;;;;;5033053;28;20795;-75
2024/01/06 11:02:16;;;;;;;9.80;5.45;;;;;;;;;;5016328;28;20040;-75
2024/01/06 11:04:44;;;;;;;8.05;4.25;;;;;;;;;;5033743;28;20041;-75
2024/01/06 11:07:10;;;;;;;9.50;4.55;;;;;;;;;;5002440;28;20553;-76
2024/01/06 11:09:39;;;;;;;5.95;4.30;;;;;;;;;;5009865;28;20647;-75
2024/01/06 11:12:06;;;;;;;6.93;4.00;;;;;;;;;;5027628;28;20044;-76
2024/01/06 11:14:37;;;;;;;11.95;5.55;;;;;;;;;;5029555;28;20041;-75
2024/01/06 11:17:03;;;;;;;11.38;6.35;;;;;;;;;;5034554;28;20063;-75
2024/01/06 11:19:34;;;;;;;11.00;5.78;;;;;;;;;;5002683;28;20050;-75
2024/01/06 11:22:18;;;;;;;13.48;5.97;;;;;;;;;;5029626;28;20078;-76
2024/01/06 11:24:48;;;;;;;13.48;7.60;;;;;;;;;;5029477;28;20130;-75
2024/01/06 11:27:41;;;;;;;12.13;7.00;;;;;;;;;;5031183;28;20045;-76
2024/01/06 11:30:07;;;;;;;7.43;6.00;;;;;;;;;;5000657;28;20051;-75
2024/01/06 11:32:41;;;;;;;9.70;5.13;;;;;;;;;;5012532;28;20054;-76
2024/01/06 11:35:11;;;;;;;8.95;5.72;;;;;;;;;;5021401;28;20425;-76
2024/01/06 11:37:39;;;;;;;6.40;4.00;;;;;;;;;;5031228;28;20480;-75
2024/01/06 11:40:25;;;;;;;6.80;4.30;;;;;;;;;;5027403;28;20065;-76
2024/01/06 11:43:02;;;;;;;9.15;4.18;;;;;;;;;;5005793;28;20724;-75
2024/01/06 11:45:28;;;;;;;12.93;6.38;;;;;;;;;;5033015;28;20666;-76
2024/01/06 11:48:03;;;;;;;5.85;3.60;;;;;;;;;;5015818;28;20107;-75
2024/01/06 11:50:33;;;;;;;6.63;3.80;;;;;;;;;;5018515;28;20071;-75
2024/01/06 11:53:02;;;;;;;7.25;3.50;;;;;;;;;;5022336;28;20088;-75
2024/01/06 11:55:34;;;;;;;5.13;3.58;;;;;;;;;;5033623;28;20083;-75
2024/01/06 11:58:04;;;;;;;6.82;4.38;;;;;;;;;;5034256;28;20505;-77
2024/01/06 12:00:29;;;;;;;5.65;4.20;;;;;;;;;;5034769;28;20492;-77
2024/01/06 12:02:58;;;;;;;5.25;4.28;;;;;;;;;;5017880;28;20067;-77
2024/01/06 12:05:26;;;;;;;5.80;3.80;;;;;;;;;;5021734;28;20671;-77
2024/01/06 12:08:04;;;;;;;6.32;3.60;;;;;;;;;;5010308;28;20058;-77
2024/01/06 12:10:30;;;;;;;5.05;3.38;;;;;;;;;;5034759;28;20033;-77
2024/01/06 12:13:08;;;;;;;8.68;3.75;;;;;;;;;;5032026;28;20048;-75
2024/01/06 12:15:34;;;;;;;6.13;3.20;;;;;;;;;;5033635;28;20399;-76
2024/01/06 12:18:03;;;;;;;5.50;3.78;;;;;;;;;;5021323;28;20091;-77
2024/01/06 12:20:28;;;;;;;9.25;6.03;;;;;;;;;;5034663;28;20033;-78
2024/01/06 12:22:54;;;;;;;10.10;5.80;;;;;;;;;;5035103;28;20044;-77
2024/01/06 12:25:24;;;;;;;5.25;3.00;;;;;;;;;;5034490;28;20131;-77
2024/01/06 12:27:52;;;;;;;5.00;3.60;;;;;;;;;;5030428;28;20045;-77
2024/01/06 12:30:18;;;;;;;6.57;3.40;;;;;;;;;;5025313;28;20586;-77
2024/01/06 12:32:48;;;;;;;6.85;3.45;;;;;;;;;;5028920;28;20049;-78
2024/01/06 12:35:15;;;;;;;9.38;4.22;;;;;;;;;;5032982;28;20107;-78
2024/01/06 12:37:44;;;;;;;9.68;5.55;;;;;;;;;;5029372;28;20045;-79
2024/01/06 12:40:12;;;;;;;11.30;5.97;;;;;;;;;;5033273;28;20048;-79
2024/01/06 12:42:38;;;;;;;28.95;12.35;;;;;;;;;;5032206;28;20496;-76
2024/01/06 12:45:04;;;;;;;9.23;5.38;;;;;;;;;;5005476;28;20116;-76
2024/01/06 12:47:29;;;;;;;17.42;8.23;;;;;;;;;;5033641;28;20052;-76
2024/01/06 12:49:55;;;;;;;20.52;8.02;;;;;;;;;;5016430;28;20037;-77
2024/01/06 12:52:20;;;;;;;8.68;4.95;;;;;;;;;;5033712;28;20675;-76
2024/01/06 12:54:46;;;;;;;12.52;6.55;;;;;;;;;;5029532;28;20087;-77
2024/01/06 12:57:11;;;;;;;7.93;4.05;;;;;;;;;;5027794;28;20616;-76
2024/01/06 12:59:37;;;;;;;7.18;4.45;;;;;;;;;;5024308;28;20045;-77
2024/01/06 13:02:02;;;;;;;6.18;4.18;;;;;;;;;;5031788;28;20115;-77
2024/01/06 13:04:27;;;;;;;7.25;5.10;;;;;;;;;;5031901;28;20033;-77
2024/01/06 13:06:53;;;;;;;5.25;3.85;;;;;;;;;;5015785;28;20485;-77
2024/01/06 13:09:18;;;;;;;10.65;5.03;;;;;;;;;;5010777;28;20037;-77
2024/01/06 13:11:46;;;;;;;6.50;4.25;;;;;;;;;;5023822;28;20444;-77
2024/01/06 13:14:12;;;;;;;7.72;4.93;;;;;;;;;;5026217;28;20064;-77
2024/01/06 13:16:37;;;;;;;6.40;3.63;;;;;;;;;;5031252;28;20152;-77
2024/01/06 13:19:04;;;;;;;17.80;9.38;;;;;;;;;;5028936;28;20037;-77
2024/01/06 13:21:30;;;;;;;8.18;5.32;;;;;;;;;;5017942;28;20526;-76
2024/01/06 13:24:00;;;;;;;7.50;3.80;;;;;;;;;;5025792;28;20029;-77
2024/01/06 13:26:26;;;;;;;9.35;4.05;;;;;;;;;;5004655;28;20140;-77
2024/01/06 13:28:52;;;;;;;10.05;4.30;;;;;;;;;;5030251;28;20124;-77
2024/01/06 13:31:18;;;;;;;5.90;3.92;;;;;;;;;;5028614;28;20075;-76
2024/01/06 13:33:44;;;;;;;7.50;4.15;;;;;;;;;;5030444;28;20239;-77
2024/01/06 13:36:09;;;;;;;9.10;4.80;;;;;;;;;;5029029;28;20090;-77
2024/01/06 13:38:35;;;;;;;10.90;6.47;;;;;;;;;;5029900;28;20033;-77
2024/01/06 13:41:00;;;;;;;12.98;5.90;;;;;;;;;;5008463;28;20072;-77
2024/01/06 13:43:25;;;;;;;9.85;5.32;;;;;;;;;;5034630;28;20078;-78
2024/01/06 13:45:51;;;;;;;7.47;4.15;;;;;;;;;;5028688;28;20561;-77
2024/01/06 13:48:17;;;;;;;8.43;4.60;;;;;;;;;;5029471;28;20433;-77
2024/01/06 13:50:43;;;;;;;9.73;4.43;;;;;;;;;;5016618;28;20044;-77
2024/01/06 13:53:08;;;;;;;8.95;4.95;;;;;;;;;;5029685;28;20037;-77
2024/01/06 13:55:34;;;;;;;19.02;8.32;;;;;;;;;;5020279;28;20041;-77
2024/01/06 13:57:59;;;;;;;20.95;8.45;;;;;;;;;;5029457;28;20051;-77
2024/01/06 14:00:25;;;;;;;11.13;7.35;;;;;;;;;;5029106;28;20502;-78
2024/01/06 14:02:51;;;;;;;12.88;6.15;;;;;;;;;;5024992;28;20071;-77
2024/01/06 14:05:19;;;;;;;8.30;4.97;;;;;;;;;;5028999;28;20559;-77
2024/01/06 14:07:45;;;;;;;8.77;4.28;;;;;;;;;;5028707;28;20823;-78
2024/01/06 14:10:14;;;;;;;8.82;4.75;;;;;;;;;;5029918;28;20068;-77
2024/01/06 14:12:40;;;;;;;12.15;8.20;;;;;;;;;;5013707;28;20049;-77
2024/01/06 14:15:06;;;;;;;12.05;8.00;;;;;;;;;;5024713;28;20050;-77
2024/01/06 14:17:32;;;;;;;15.82;8.98;;;;;;;;;;5032246;28;20060;-77
2024/01/06 14:19:57;;;;;;;8.15;4.65;;;;;;;;;;5034483;28;20052;-77
2024/01/06 14:22:23;;;;;;;10.55;4.85;;;;;;;;;;5022964;28;20045;-77
2024/01/06 14:24:49;;;;;;;12.82;6.00;;;;;;;;;;5031125;28;20033;-77
2024/01/06 14:27:15;;;;;;;10.60;6.38;;;;;;;;;;5028362;28;20042;-77
2024/01/06 14:29:41;;;;;;;8.88;5.85;;;;;;;;;;5025616;28;20045;-77
2024/01/06 14:32:06;;;;;;;10.10;6.25;;;;;;;;;;5035717;28;20103;-77
2024/01/06 14:34:32;;;;;;;10.45;5.88;;;;;;;;;;5033860;28;20041;-77